createdAt,value
2019-01-21T00:00:56.837Z,101718.86
2019-01-21T00:02:01.073Z,101704.02
2019-01-21T00:03:05.482Z,101709.78
2019-01-21T00:04:09.774Z,101717.06
2019-01-21T00:05:14.101Z,101713.64
2019-01-21T00:06:18.414Z,101707.51
2019-01-21T00:07:22.738Z,101708.45
2019-01-21T00:08:27.001Z,101701.48
2019-01-21T00:09:31.207Z,101709.04
2019-01-21T00:10:35.500Z,101704.23
2019-01-21T00:11:39.827Z,101703.38
2019-01-21T00:12:44.083Z,101705.17
2019-01-21T00:13:48.330Z,101703.86
2019-01-21T00:14:52.671Z,101702.16
2019-01-21T00:15:57.003Z,101696.50
2019-01-21T00:17:01.147Z,101697.35
2019-01-21T00:18:05.796Z,101693.86
2019-01-21T00:19:10.127Z,101696.58
2019-01-21T00:20:14.364Z,101688.64
2019-01-21T00:21:18.994Z,101693.09
2019-01-21T00:22:23.199Z,101688.64
2019-01-21T00:23:27.525Z,101693.94
2019-01-21T00:24:31.926Z,101683.94
2019-01-21T00:25:36.212Z,101683.56
2019-01-21T00:26:40.457Z,101687.05
2019-01-21T00:27:44.659Z,101682.72
2019-01-21T00:28:49.018Z,101688.00
2019-01-21T00:29:53.388Z,101693.30
2019-01-21T00:30:57.565Z,101689.33
2019-01-21T00:32:01.900Z,101685.57
2019-01-21T00:33:06.637Z,101689.06
2019-01-21T00:34:10.963Z,101689.91
2019-01-21T00:35:15.308Z,101690.48
2019-01-21T00:36:19.538Z,101686.52
2019-01-21T00:37:23.836Z,101687.84
2019-01-21T00:38:28.089Z,101686.12
2019-01-21T00:39:32.292Z,101687.07
2019-01-21T00:40:36.534Z,101692.73
2019-01-21T00:41:40.915Z,101693.31
2019-01-21T00:42:45.050Z,101689.34
2019-01-21T00:43:49.522Z,101691.61
2019-01-21T00:44:53.744Z,101692.94
2019-01-21T00:45:58.003Z,101691.24
2019-01-21T00:47:02.315Z,101697.00
2019-01-21T00:48:06.628Z,101693.52
2019-01-21T00:49:10.801Z,101695.78
2019-01-21T00:50:15.208Z,101698.43
2019-01-21T00:51:19.428Z,101689.25
2019-01-21T00:52:23.659Z,101694.09
2019-01-21T00:53:27.936Z,101688.88
2019-01-21T00:54:32.257Z,101692.00
2019-01-21T00:55:36.605Z,101688.98
2019-01-21T00:56:40.671Z,101692.95
2019-01-21T00:57:44.888Z,101690.87
2019-01-21T00:58:49.095Z,101697.48
2019-01-21T00:59:53.217Z,101693.16
2019-01-21T01:00:57.563Z,101697.12
2019-01-21T01:02:01.904Z,101703.35
2019-01-21T01:03:06.157Z,101696.75
2019-01-21T01:04:10.324Z,101693.73
2019-01-21T01:05:14.740Z,101686.72
2019-01-21T01:06:19.080Z,101689.36
2019-01-21T01:07:23.377Z,101702.58
2019-01-21T01:08:27.591Z,101698.23
2019-01-21T01:09:31.979Z,101699.56
2019-01-21T01:10:36.293Z,101694.27
2019-01-21T01:11:40.596Z,101699.56
2019-01-21T01:12:44.869Z,101704.47
2019-01-21T01:13:49.079Z,101698.81
2019-01-21T01:14:53.273Z,101701.09
2019-01-21T01:15:57.714Z,101699.39
2019-01-21T01:17:01.920Z,101702.98
2019-01-21T01:18:06.193Z,101699.56
2019-01-21T01:19:10.555Z,101702.20
2019-01-21T01:20:16.784Z,101705.80
2019-01-21T01:21:21.107Z,101704.11
2019-01-21T01:22:25.201Z,101703.73
2019-01-21T01:23:29.464Z,101707.33
2019-01-21T01:24:33.711Z,101712.13
2019-01-21T01:25:38.022Z,101706.95
2019-01-21T01:26:42.241Z,101711.39
2019-01-21T01:27:46.442Z,101704.69
2019-01-21T01:28:50.449Z,101704.78
2019-01-21T01:29:54.763Z,101708.75
2019-01-21T01:30:59.054Z,101698.66
2019-01-21T01:32:03.378Z,101701.30
2019-01-21T01:33:07.669Z,101699.98
2019-01-21T01:34:11.760Z,101698.28
2019-01-21T01:35:16.774Z,101700.08
2019-01-21T01:36:21.117Z,101699.23
2019-01-21T01:37:25.447Z,101701.88
2019-01-21T01:38:29.715Z,101695.81
2019-01-21T01:39:33.886Z,101699.30
2019-01-21T01:40:38.268Z,101694.97
2019-01-21T01:41:42.627Z,101698.92
2019-01-21T01:42:47.071Z,101693.27
2019-01-21T01:43:51.391Z,101692.42
2019-01-21T01:44:55.671Z,101696.39
2019-01-21T01:45:59.962Z,101694.70
2019-01-21T01:47:04.302Z,101698.66
2019-01-21T01:48:08.556Z,101699.61
2019-01-21T01:49:12.877Z,101697.91
2019-01-21T01:50:17.082Z,101698.38
2019-01-21T01:51:21.379Z,101702.34
2019-01-21T01:52:25.725Z,101704.14
2019-01-21T01:53:30.072Z,101707.22
2019-01-21T01:54:34.327Z,101712.06
2019-01-21T01:55:38.687Z,101706.78
2019-01-21T01:56:43.141Z,101709.42
2019-01-21T01:57:47.574Z,101707.16
2019-01-21T01:58:51.841Z,101701.88
2019-01-21T01:59:56.083Z,101708.48
2019-01-21T02:01:00.272Z,101703.19
2019-01-21T02:02:04.488Z,101699.23
2019-01-21T02:03:08.801Z,101704.52
2019-01-21T02:04:13.152Z,101699.70
2019-01-21T02:05:17.412Z,101700.55
2019-01-21T02:06:21.667Z,101705.46
2019-01-21T02:07:25.938Z,101697.53
2019-01-21T02:08:30.189Z,101698.86
2019-01-21T02:09:34.437Z,101704.14
2019-01-21T02:10:38.639Z,101699.70
2019-01-21T02:11:42.846Z,101698.08
2019-01-21T02:12:47.091Z,101689.61
2019-01-21T02:13:51.381Z,101698.86
2019-01-21T02:14:55.765Z,101709.80
2019-01-21T02:16:00.016Z,101696.02
2019-01-21T02:17:04.370Z,101683.17
2019-01-21T02:18:08.839Z,101691.84
2019-01-21T02:19:13.122Z,101683.92
2019-01-21T02:20:17.545Z,101680.33
2019-01-21T02:21:21.803Z,101684.22
2019-01-21T02:22:27.899Z,101668.74
2019-01-21T02:23:36.038Z,101690.73
2019-01-21T02:24:42.031Z,101682.33
2019-01-21T02:25:51.958Z,101672.61
2019-01-21T02:27:04.191Z,101665.52
2019-01-21T02:29:19.867Z,101678.63
2019-01-21T02:30:37.283Z,101660.98
2019-01-21T02:34:54.664Z,101662.67
2019-01-21T02:36:13.209Z,101654.85
2019-01-21T02:37:29.982Z,101646.82
2019-01-21T02:38:54.847Z,101657.39
2019-01-21T02:40:13.299Z,101645.40
2019-01-21T02:41:30.976Z,101661.56
2019-01-21T02:42:44.552Z,101672.98
2019-01-21T02:44:06.559Z,101658.81
2019-01-21T02:45:50.045Z,101642.38
2019-01-21T02:47:07.820Z,101643.33
2019-01-21T02:48:21.839Z,101642.76
2019-01-21T02:49:54.107Z,101642.38
2019-01-21T02:51:15.933Z,101634.45
2019-01-21T02:54:44.371Z,101633.13
2019-01-21T02:56:22.262Z,101632.59
2019-01-21T02:57:42.751Z,101633.91
2019-01-21T02:59:17.486Z,101629.00
2019-01-21T03:00:32.716Z,101618.43
2019-01-21T03:01:49.403Z,101621.81
2019-01-21T03:04:09.315Z,101628.79
2019-01-21T03:05:25.924Z,101624.25
2019-01-21T03:07:49.560Z,101620.66
2019-01-21T03:10:23.470Z,101614.34
2019-01-21T03:11:38.191Z,101610.64
2019-01-21T03:13:29.323Z,101623.28
2019-01-21T03:15:43.569Z,101618.77
2019-01-21T03:16:58.298Z,101622.05
2019-01-21T03:19:15.918Z,101612.69
2019-01-21T03:20:30.099Z,101612.58
2019-01-21T03:21:47.022Z,101620.33
2019-01-21T03:24:13.371Z,101621.08
2019-01-21T03:25:46.550Z,101619.06
2019-01-21T03:27:06.902Z,101621.16
2019-01-21T03:28:21.474Z,101624.17
2019-01-21T03:29:40.068Z,101619.63
2019-01-21T03:32:59.991Z,101613.37
2019-01-21T03:35:12.520Z,101613.56
2019-01-21T03:36:33.980Z,101613.94
2019-01-21T03:37:51.555Z,101626.47
2019-01-21T03:39:24.574Z,101618.43
2019-01-21T03:40:49.460Z,101617.47
2019-01-21T03:42:14.762Z,101630.63
2019-01-21T03:43:42.244Z,101621.26
2019-01-21T03:46:07.842Z,101629.93
2019-01-21T03:47:26.896Z,101628.39
2019-01-21T03:48:37.559Z,101630.48
2019-01-21T03:50:50.631Z,101630.27
2019-01-21T03:52:43.722Z,101632.70
2019-01-21T03:53:56.968Z,101626.37
2019-01-21T03:55:05.856Z,101625.31
2019-01-21T03:56:15.487Z,101624.36
2019-01-21T03:57:31.754Z,101629.06
2019-01-21T03:58:46.105Z,101625.02
2019-01-21T04:01:03.326Z,101624.91
2019-01-21T04:02:25.922Z,101620.14
2019-01-21T04:03:55.715Z,101619.59
2019-01-21T04:06:18.428Z,101618.16
2019-01-21T04:07:35.563Z,101619.84
2019-01-21T04:08:55.464Z,101619.73
2019-01-21T04:10:12.358Z,101625.39
2019-01-21T04:11:45.485Z,101631.05
2019-01-21T04:13:04.869Z,101630.09
2019-01-21T04:14:32.529Z,101630.02
2019-01-21T04:15:52.379Z,101625.83
2019-01-21T04:17:20.973Z,101624.77
2019-01-21T04:20:38.969Z,101622.41
2019-01-21T04:22:10.751Z,101625.09
2019-01-21T04:24:09.978Z,101619.98
2019-01-21T04:25:40.359Z,101625.27
2019-01-21T04:27:53.454Z,101625.53
2019-01-21T04:30:05.685Z,101632.41
2019-01-21T04:31:22.650Z,101629.20
2019-01-21T04:32:59.467Z,101632.58
2019-01-21T04:34:47.961Z,101623.67
2019-01-21T04:36:03.487Z,101619.23
2019-01-21T04:37:21.402Z,101621.39
2019-01-21T04:38:39.867Z,101624.41
2019-01-21T04:39:50.383Z,101620.92
2019-01-21T04:41:06.441Z,101621.28
2019-01-21T04:42:51.476Z,101618.16
2019-01-21T04:46:11.377Z,101619.85
2019-01-21T04:47:25.845Z,101616.64
2019-01-21T04:48:54.802Z,101616.16
2019-01-21T04:50:10.739Z,101617.86
2019-01-21T04:51:34.039Z,101620.50
2019-01-21T04:54:52.960Z,101618.11
2019-01-21T04:58:10.749Z,101619.20
2019-01-21T05:00:27.574Z,101622.03
2019-01-21T05:01:47.157Z,101617.09
2019-01-21T05:03:34.944Z,101621.91
2019-01-21T05:07:28.585Z,101615.66
2019-01-21T05:08:54.233Z,101615.55
2019-01-21T05:10:29.230Z,101614.22
2019-01-21T05:11:51.711Z,101616.80
2019-01-21T05:14:10.570Z,101618.00
2019-01-21T05:16:27.994Z,101610.05
2019-01-21T05:17:43.716Z,101608.14
2019-01-21T05:20:09.589Z,101615.12
2019-01-21T05:23:34.055Z,101611.89
2019-01-21T05:27:00.108Z,101613.97
2019-01-21T05:28:28.735Z,101616.76
2019-01-21T05:29:43.702Z,101610.14
2019-01-21T05:31:07.419Z,101610.50
2019-01-21T05:32:29.139Z,101606.38
2019-01-21T05:34:14.859Z,101611.23
2019-01-21T05:36:38.234Z,101612.08
2019-01-21T05:38:56.581Z,101609.31
2019-01-21T05:42:16.240Z,101609.20
2019-01-21T05:44:47.868Z,101611.73
2019-01-21T05:48:07.086Z,101621.25
2019-01-21T05:49:31.819Z,101611.50
2019-01-21T05:50:53.845Z,101611.78
2019-01-21T05:54:28.314Z,101615.76
2019-01-21T05:57:52.681Z,101616.37
2019-01-21T05:59:08.337Z,101616.17
2019-01-21T06:01:22.266Z,101610.88
2019-01-21T06:03:35.855Z,101609.91
2019-01-21T06:06:53.237Z,101612.09
2019-01-21T06:10:18.354Z,101607.03
2019-01-21T06:11:34.050Z,101594.52
2019-01-21T06:13:58.049Z,101599.33
2019-01-21T06:15:31.947Z,101597.92
2019-01-21T06:18:57.107Z,101601.42
2019-01-21T06:20:22.391Z,101597.69
2019-01-21T06:23:47.924Z,101602.39
2019-01-21T06:25:01.438Z,101609.66
2019-01-21T06:26:21.908Z,101609.55
2019-01-21T06:30:48.707Z,101605.57
2019-01-21T06:32:03.235Z,101613.05
2019-01-21T06:35:57.736Z,101616.95
2019-01-21T06:37:19.013Z,101618.52
2019-01-21T06:39:43.902Z,101621.41
2019-01-21T06:41:04.794Z,101620.85
2019-01-21T06:43:29.489Z,101627.84
2019-01-21T06:44:47.227Z,101624.23
2019-01-21T06:46:10.116Z,101625.44
2019-01-21T06:47:45.041Z,101625.32
2019-01-21T06:51:02.835Z,101622.19
2019-01-21T06:52:17.474Z,101623.67
2019-01-21T06:54:03.564Z,101617.41
2019-01-21T06:55:17.946Z,101619.09
2019-01-21T06:56:36.712Z,101620.78
2019-01-21T06:58:37.048Z,101619.83
2019-01-21T07:00:07.025Z,101622.72
2019-01-21T07:02:20.935Z,101623.59
2019-01-21T07:05:42.816Z,101621.30
2019-01-21T07:08:05.766Z,101629.03
2019-01-21T07:09:19.442Z,101626.14
2019-01-21T07:10:30.471Z,101624.45
2019-01-21T07:11:49.832Z,101627.83
2019-01-21T07:13:05.519Z,101632.20
2019-01-21T07:14:33.432Z,101629.91
2019-01-21T07:15:58.202Z,101635.09
2019-01-21T07:17:12.641Z,101639.92
2019-01-21T07:18:34.793Z,101638.95
2019-01-21T07:19:59.609Z,101639.32
2019-01-21T07:21:19.238Z,101640.53
2019-01-21T07:22:38.792Z,101644.88
2019-01-21T07:25:06.913Z,101647.44
2019-01-21T07:27:22.191Z,101644.55
2019-01-21T07:29:38.842Z,101646.59
2019-01-21T07:31:30.383Z,101650.85
2019-01-21T07:33:47.907Z,101651.70
2019-01-21T07:35:09.450Z,101651.09
2019-01-21T07:36:37.615Z,101652.78
2019-01-21T07:37:58.018Z,101652.78
2019-01-21T07:40:16.692Z,101657.97
2019-01-21T07:43:35.908Z,101661.35
2019-01-21T07:44:54.015Z,101661.98
2019-01-21T07:46:17.105Z,101662.35
2019-01-21T07:47:33.087Z,101661.87
2019-01-21T07:48:58.975Z,101660.42
2019-01-21T07:50:18.320Z,101662.95
2019-01-21T07:53:35.780Z,101666.94
2019-01-21T07:54:52.522Z,101656.11
2019-01-21T07:58:20.162Z,101659.97
2019-01-21T08:00:06.250Z,101666.84
2019-01-21T08:01:19.160Z,101668.45
2019-01-21T08:47:09.462Z,101687.97
2019-01-21T08:50:33.179Z,101685.61
2019-01-21T08:53:50.404Z,101678.16
2019-01-21T08:57:07.999Z,101676.55
2019-01-21T09:00:28.170Z,101678.88
2019-01-21T09:02:14.491Z,101686.76
2019-01-21T09:03:34.132Z,101693.06
2019-01-21T09:06:53.707Z,101693.31
2019-01-21T09:10:15.617Z,101690.45
2019-01-21T09:12:30.329Z,101692.98
2019-01-21T09:13:59.416Z,101689.08
2019-01-21T09:15:30.194Z,101682.72
2019-01-21T09:16:59.967Z,101684.26
2019-01-21T09:18:49.086Z,101683.08
2019-01-21T09:20:10.634Z,101686.34
2019-01-21T09:21:56.547Z,101687.09
2019-01-21T09:23:12.794Z,101691.20
2019-01-21T09:24:57.859Z,101691.44
2019-01-21T09:26:16.853Z,101699.55
2019-01-21T09:27:30.820Z,101698.47
2019-01-21T09:28:46.463Z,101692.07
2019-01-21T09:29:59.840Z,101691.13
2019-01-21T09:32:13.439Z,101691.50
2019-01-21T09:33:35.037Z,101691.61
2019-01-21T09:36:59.071Z,101697.28
2019-01-21T09:39:21.589Z,101696.47
2019-01-21T09:41:39.216Z,101693.92
2019-01-21T09:42:59.544Z,101695.77
2019-01-21T09:45:17.311Z,101692.14
2019-01-21T09:46:39.864Z,101697.44
2019-01-21T09:47:42.439Z,101697.77
2019-01-21T09:48:45.029Z,101694.52
2019-01-21T09:49:49.348Z,101695.72
2019-01-21T09:50:53.752Z,101693.28
2019-01-21T09:52:05.588Z,101693.03
2019-01-21T09:53:09.899Z,101699.19
2019-01-21T09:54:14.074Z,101696.90
2019-01-21T09:55:18.408Z,101694.48
2019-01-21T09:56:22.674Z,101696.90
2019-01-21T09:57:27.751Z,101695.33
2019-01-21T09:58:32.315Z,101691.08
2019-01-21T09:59:36.671Z,101697.63
2019-01-21T10:00:40.939Z,101694.36
2019-01-21T10:01:45.539Z,101694.63
2019-01-21T10:02:50.336Z,101688.30
2019-01-21T10:03:54.553Z,101694.61
2019-01-21T10:05:03.340Z,101691.71
2019-01-21T10:06:09.790Z,101689.84
2019-01-21T10:07:19.741Z,101690.80
2019-01-21T10:08:43.082Z,101691.86
2019-01-21T10:10:00.268Z,101688.20
2019-01-21T10:11:20.838Z,101693.78
2019-01-21T10:14:41.191Z,101689.23
2019-01-21T10:16:11.272Z,101686.03
2019-01-21T10:17:29.268Z,101689.08
2019-01-21T10:18:43.356Z,101687.42
2019-01-21T10:20:01.398Z,101689.94
2019-01-21T10:21:20.186Z,101684.53
2019-01-21T10:23:50.153Z,101691.19
2019-01-21T10:27:10.578Z,101685.75
2019-01-21T10:28:31.858Z,101684.78
2019-01-21T10:29:59.052Z,101686.02
2019-01-21T10:33:25.654Z,101679.87
2019-01-21T10:35:00.192Z,101676.96
2019-01-21T10:36:17.575Z,101684.68
2019-01-21T10:37:38.263Z,101687.97
2019-01-21T10:39:01.367Z,101683.96
2019-01-21T10:40:32.380Z,101692.80
2019-01-21T10:41:54.196Z,101686.64
2019-01-21T10:43:24.123Z,101681.94
2019-01-21T10:45:09.622Z,101682.41
2019-01-21T10:46:29.579Z,101678.18
2019-01-21T10:47:42.283Z,101675.62
2019-01-21T10:51:01.253Z,101671.42
2019-01-21T10:52:24.924Z,101673.58
2019-01-21T10:53:42.213Z,101677.70
2019-01-21T10:57:04.864Z,101673.81
2019-01-21T10:58:28.057Z,101670.53
2019-01-21T10:59:46.824Z,101665.80
2019-01-21T11:01:10.379Z,101669.56
2019-01-21T11:02:30.415Z,101662.52
2019-01-21T11:04:43.226Z,101664.11
2019-01-21T11:06:58.090Z,101656.36
2019-01-21T11:08:11.662Z,101655.97
2019-01-21T11:09:26.738Z,101654.05
2019-01-21T11:10:37.168Z,101654.27
2019-01-21T11:11:54.051Z,101648.81
2019-01-21T11:13:10.673Z,101649.53
2019-01-21T11:16:29.434Z,101645.30
2019-01-21T11:18:52.811Z,101649.16
2019-01-21T11:20:06.692Z,101655.91
2019-01-21T11:21:33.646Z,101655.64
2019-01-21T11:22:47.697Z,101661.70
2019-01-21T11:24:25.128Z,101664.23
2019-01-21T11:25:45.022Z,101660.47
2019-01-21T11:27:05.851Z,101664.46
2019-01-21T11:28:19.617Z,101668.59
2019-01-21T11:29:43.786Z,101660.82
2019-01-21T11:30:58.405Z,101659.98
2019-01-21T11:33:18.900Z,101668.45
2019-01-21T11:35:02.923Z,101664.94
2019-01-21T11:36:19.438Z,101671.69
2019-01-21T11:37:43.883Z,101671.09
2019-01-21T11:39:09.383Z,101670.96
2019-01-21T11:40:25.608Z,101679.17
2019-01-21T11:41:39.137Z,101681.48
2019-01-21T11:43:01.909Z,101680.50
2019-01-21T11:44:22.807Z,101677.63
2019-01-21T11:46:38.783Z,101683.92
2019-01-21T11:49:56.866Z,101673.38
2019-01-21T11:52:11.622Z,101676.84
2019-01-21T11:53:35.742Z,101670.69
2019-01-21T11:55:54.186Z,101677.86
2019-01-21T11:57:09.875Z,101674.81
2019-01-21T11:59:40.353Z,101675.91
2019-01-21T12:01:58.354Z,101681.25
2019-01-21T12:03:15.953Z,101676.54
2019-01-21T12:04:28.855Z,101669.66
2019-01-21T12:05:47.648Z,101672.81
2019-01-21T12:07:05.222Z,101669.66
2019-01-21T12:10:27.056Z,101668.81
2019-01-21T12:11:53.672Z,101670.38
2019-01-21T12:13:08.702Z,101664.83
2019-01-21T12:15:10.374Z,101666.29
2019-01-21T12:16:33.670Z,101665.41
2019-01-21T12:20:49.325Z,101660.22
2019-01-21T12:22:05.602Z,101671.13
2019-01-21T12:23:20.537Z,101678.59
2019-01-21T12:24:35.102Z,101677.52
2019-01-21T12:25:44.845Z,101677.12
2019-01-21T12:27:40.997Z,101679.55
2019-01-21T12:29:53.493Z,101676.89
2019-01-21T12:31:07.034Z,101680.89
2019-01-21T12:32:25.831Z,101675.20
2019-01-21T12:33:39.163Z,101679.91
2019-01-21T12:34:59.191Z,101677.21
2019-01-21T12:36:08.444Z,101676.00
2019-01-21T12:37:55.451Z,101680.93
2019-01-21T12:39:23.951Z,101680.44
2019-01-21T12:40:45.116Z,101673.16
2019-01-21T12:42:10.491Z,101675.95
2019-01-21T12:43:57.032Z,101676.42
2019-01-21T12:45:11.811Z,101676.28
2019-01-21T12:46:28.188Z,101671.69
2019-01-21T12:47:43.898Z,101674.84
2019-01-21T12:50:23.910Z,101675.81
2019-01-21T12:51:50.525Z,101670.88
2019-01-21T12:53:02.792Z,101668.73
2019-01-21T12:54:27.973Z,101668.23
2019-01-21T12:56:16.625Z,101671.88
2019-01-21T12:57:31.898Z,101666.56
2019-01-21T12:58:52.810Z,101667.53
2019-01-21T13:01:10.481Z,101672.23
2019-01-21T13:02:22.068Z,101670.94
2019-01-21T13:03:56.541Z,101669.48
2019-01-21T13:05:18.403Z,101665.89
2019-01-21T13:08:35.221Z,101665.28
2019-01-21T13:12:02.925Z,101663.85
2019-01-21T13:13:54.495Z,101661.77
2019-01-21T13:15:11.337Z,101663.45
2019-01-21T13:16:30.147Z,101665.19
2019-01-21T13:17:53.459Z,101659.54
2019-01-21T13:19:26.077Z,101667.16
2019-01-21T13:21:58.520Z,101661.00
2019-01-21T13:24:18.684Z,101662.66
2019-01-21T13:26:37.964Z,101661.81
2019-01-21T13:28:01.102Z,101656.72
2019-01-21T13:29:13.702Z,101656.13
2019-01-21T13:30:28.213Z,101658.79
2019-01-21T13:31:47.592Z,101656.84
2019-01-21T13:33:21.646Z,101655.87
2019-01-21T13:34:36.307Z,101651.74
2019-01-21T13:35:55.225Z,101652.72
2019-01-21T13:37:24.318Z,101655.12
2019-01-21T13:39:49.301Z,101650.28
2019-01-21T13:43:16.327Z,101654.58
2019-01-21T13:44:33.135Z,101654.09
2019-01-21T13:46:46.783Z,101652.62
2019-01-21T13:49:13.658Z,101653.37
2019-01-21T13:50:37.097Z,101662.42
2019-01-21T13:52:07.737Z,101656.47
2019-01-21T13:53:22.906Z,101651.41
2019-01-21T13:54:36.459Z,101649.94
2019-01-21T13:55:49.130Z,101655.97
2019-01-21T13:57:03.192Z,101654.91
2019-01-21T13:58:31.980Z,101649.58
2019-01-21T13:59:47.659Z,101650.07
2019-01-21T14:01:14.884Z,101661.44
2019-01-21T14:02:34.746Z,101658.78
2019-01-21T14:04:11.007Z,101657.80
2019-01-21T14:05:31.013Z,101663.27
2019-01-21T14:06:40.825Z,101659.05
2019-01-21T14:07:57.203Z,101655.64
2019-01-21T14:09:43.992Z,101661.84
2019-01-21T14:12:09.001Z,101663.27
2019-01-21T14:13:34.088Z,101663.48
2019-01-21T14:14:50.449Z,101670.05
2019-01-21T14:16:07.922Z,101662.28
2019-01-21T14:19:56.306Z,101661.94
2019-01-21T14:21:27.661Z,101655.55
2019-01-21T14:25:01.391Z,101655.91
2019-01-21T14:26:14.624Z,101652.80
2019-01-21T14:27:35.912Z,101657.73
2019-01-21T14:28:50.522Z,101654.00
2019-01-21T14:30:05.541Z,101649.38
2019-01-21T14:31:29.113Z,101652.18
2019-01-21T14:32:49.735Z,101647.61
2019-01-21T14:34:14.792Z,101649.30
2019-01-21T14:36:00.475Z,101649.44
2019-01-21T14:39:19.731Z,101653.47
2019-01-21T14:40:32.424Z,101653.92
2019-01-21T14:41:55.126Z,101651.30
2019-01-21T14:43:12.857Z,101650.36
2019-01-21T14:44:25.683Z,101657.49
2019-01-21T14:45:41.787Z,101653.14
2019-01-21T14:46:58.613Z,101648.19
2019-01-21T14:48:20.737Z,101650.45
2019-01-21T14:49:36.658Z,101644.55
2019-01-21T14:52:59.738Z,101645.65
2019-01-21T14:54:26.502Z,101646.72
2019-01-21T14:56:02.125Z,101647.20
2019-01-21T14:57:33.711Z,101648.41
2019-01-21T14:58:55.346Z,101648.67
2019-01-21T15:02:13.967Z,101649.16
2019-01-21T15:04:01.726Z,101653.63
2019-01-21T15:06:22.668Z,101650.50
2019-01-21T15:07:35.925Z,101647.24
2019-01-21T15:08:52.228Z,101650.52
2019-01-21T15:10:35.437Z,101643.48
2019-01-21T15:11:56.354Z,101643.02
2019-01-21T15:13:24.155Z,101646.28
2019-01-21T15:14:53.302Z,101652.79
2019-01-21T15:16:40.788Z,101642.52
2019-01-21T15:18:09.653Z,101655.95
2019-01-21T15:19:28.121Z,101647.73
2019-01-21T15:21:40.688Z,101650.39
2019-01-21T15:22:57.929Z,101653.77
2019-01-21T15:24:14.276Z,101647.73
2019-01-21T15:25:35.120Z,101653.77
2019-01-21T15:26:49.381Z,101645.89
2019-01-21T15:28:06.602Z,101653.27
2019-01-21T15:29:35.887Z,101652.70
2019-01-21T15:32:23.314Z,101655.22
2019-01-21T15:33:39.608Z,101650.27
2019-01-21T15:34:58.165Z,101653.65
2019-01-21T15:37:16.024Z,101651.34
2019-01-21T15:38:36.387Z,101652.17
2019-01-21T15:40:03.607Z,101654.12
2019-01-21T15:41:28.133Z,101649.03
2019-01-21T15:42:43.425Z,101646.02
2019-01-21T15:44:03.230Z,101651.07
2019-01-21T15:45:23.707Z,101645.36
2019-01-21T15:46:50.156Z,101645.97
2019-01-21T15:48:09.369Z,101644.74
2019-01-21T15:49:32.307Z,101647.41
2019-01-21T15:50:45.979Z,101644.39
2019-01-21T15:51:59.426Z,101643.18
2019-01-21T15:56:22.034Z,101644.73
2019-01-21T15:57:43.775Z,101641.45
2019-01-21T15:59:17.887Z,101640.39
2019-01-21T16:02:37.210Z,101642.66
2019-01-21T16:04:01.401Z,101645.66
2019-01-21T16:05:23.116Z,101647.13
2019-01-21T16:08:44.427Z,101643.27
2019-01-21T16:10:38.275Z,101638.53
2019-01-21T16:12:00.452Z,101641.23
2019-01-21T16:13:16.712Z,101641.19
2019-01-21T16:14:32.931Z,101645.19
2019-01-21T16:17:51.500Z,101642.39
2019-01-21T16:19:04.143Z,101644.20
2019-01-21T16:21:21.100Z,101643.00
2019-01-21T16:22:46.881Z,101646.51
2019-01-21T16:26:20.879Z,101643.00
2019-01-21T16:27:38.110Z,101647.44
2019-01-21T16:28:58.052Z,101653.38
2019-01-21T16:30:11.613Z,101650.12
2019-01-21T16:31:28.296Z,101654.98
2019-01-21T16:32:48.928Z,101653.05
2019-01-21T16:34:04.108Z,101656.19
2019-01-21T16:35:34.095Z,101659.45
2019-01-21T16:37:05.537Z,101654.37
2019-01-21T16:38:53.865Z,101665.38
2019-01-21T16:40:14.595Z,101661.63
2019-01-21T16:41:39.461Z,101665.62
2019-01-21T16:42:43.958Z,101659.56
2019-01-21T16:43:48.566Z,101660.63
2019-01-21T16:44:52.958Z,101657.75
2019-01-21T16:45:57.479Z,101659.92
2019-01-21T16:47:01.884Z,101655.93
2019-01-21T16:48:06.393Z,101657.88
2019-01-21T16:49:10.954Z,101653.75
2019-01-21T16:50:15.473Z,101652.80
2019-01-21T16:51:20.368Z,101660.77
2019-01-21T16:52:24.771Z,101662.45
2019-01-21T16:53:29.173Z,101659.34
2019-01-21T16:54:33.617Z,101653.17
2019-01-21T16:55:37.935Z,101659.44
2019-01-21T16:56:42.223Z,101660.19
2019-01-21T16:57:46.672Z,101659.70
2019-01-21T16:58:51.151Z,101655.47
2019-01-21T16:59:55.660Z,101660.89
2019-01-21T17:01:00.214Z,101662.72
2019-01-21T17:02:04.753Z,101662.72
2019-01-21T17:03:09.351Z,101660.41
2019-01-21T17:04:13.728Z,101659.08
2019-01-21T17:05:18.469Z,101662.24
2019-01-21T17:06:23.223Z,101656.20
2019-01-21T17:07:27.999Z,101654.86
2019-01-21T17:08:32.420Z,101663.91
2019-01-21T17:09:36.996Z,101661.52
2019-01-21T17:10:41.759Z,101662.70
2019-01-21T17:11:46.504Z,101662.83
2019-01-21T17:12:50.838Z,101663.33
2019-01-21T17:13:55.569Z,101662.82
2019-01-21T17:15:00.419Z,101662.95
2019-01-21T17:16:05.257Z,101659.33
2019-01-21T17:18:14.651Z,101667.17
2019-01-21T17:19:19.617Z,101665.72
2019-01-21T17:20:24.198Z,101662.58
2019-01-21T17:21:28.526Z,101664.37
2019-01-21T17:22:33.138Z,101666.31
2019-01-21T17:23:37.327Z,101665.93
2019-01-21T17:24:41.667Z,101669.20
2019-01-21T17:25:45.852Z,101670.28
2019-01-21T17:26:50.239Z,101665.80
2019-01-21T17:27:54.596Z,101664.59
2019-01-21T17:28:58.915Z,101670.63
2019-01-21T17:30:03.207Z,101666.03
2019-01-21T17:31:07.831Z,101665.77
2019-01-21T17:32:12.578Z,101669.66
2019-01-21T17:33:17.106Z,101665.77
2019-01-21T17:34:21.663Z,101664.08
2019-01-21T17:35:26.464Z,101658.48
2019-01-21T17:36:30.983Z,101660.30
2019-01-21T17:37:35.871Z,101661.89
2019-01-21T17:38:40.180Z,101664.30
2019-01-21T17:39:44.602Z,101662.48
2019-01-21T17:40:48.885Z,101660.88
2019-01-21T17:41:53.327Z,101664.39
2019-01-21T17:42:58.134Z,101665.48
2019-01-21T17:44:02.597Z,101659.19
2019-01-21T17:45:10.040Z,101659.90
2019-01-21T17:46:14.627Z,101662.42
2019-01-21T17:47:19.061Z,101671.03
2019-01-21T17:48:23.975Z,101659.89
2019-01-21T17:49:28.574Z,101663.27
2019-01-21T17:50:32.851Z,101666.15
2019-01-21T17:51:37.440Z,101669.91
2019-01-21T17:52:41.772Z,101667.60
2019-01-21T17:53:51.294Z,101670.48
2019-01-21T17:54:50.716Z,101662.72
2019-01-21T17:55:55.426Z,101665.38
2019-01-21T17:57:00.026Z,101663.46
2019-01-21T17:58:04.317Z,101659.82
2019-01-21T17:59:08.793Z,101667.55
2019-01-21T18:00:15.385Z,101655.91
2019-01-21T18:01:19.780Z,101664.64
2019-01-21T18:02:24.573Z,101655.68
2019-01-21T18:03:29.235Z,101658.20
2019-01-21T18:04:33.649Z,101655.41
2019-01-21T18:05:38.024Z,101656.61
2019-01-21T18:06:42.251Z,101663.13
2019-01-21T18:07:46.552Z,101660.82
2019-01-21T18:08:51.064Z,101663.03
2019-01-21T18:09:55.303Z,101658.05
2019-01-21T18:10:59.563Z,101662.89
2019-01-21T18:12:03.858Z,101659.25
2019-01-21T18:13:08.286Z,101657.08